Frazer, MT (59225)

2:22 PM MDT on July 25, 2016 (GMT -0600)
Downtown | | Change Station

Elev 2001 ft 48.09 °N, 105.64 °W | Updated 3 minutes ago

Clear
Clear
91.0 °F
Feels Like 87 °F
N
7.0
Wind Variable Wind from NE
Gusts 12.5 mph

Today
High -- | Low -- °F
--% Chance of Precip.
Yesterday
High -- | Low -- °F
Precip. -- in
Pressure 29.94 in
Visibility 10.0 miles
Clouds Clear
Heat Index 87 °F
Dew Point 31 °F
Humidity 12%
Rainfall Not available.
Snow Depth Not available.
5:32 AM 8:48 PM
Waning Gibbous, 63% visible
METAR KOLF 251953Z AUTO 06007KT 10SM CLR 34/08 A2997 RMK AO2 SLP136 T03390078
Pressure 29.94 in
Visibility 10.0 miles
Clouds Clear
Heat Index 87 °F
Dew Point 31 °F
Humidity 12%
Rainfall Not available.
Snow Depth Not available.
5:32 AM 8:48 PM
Waning Gibbous, 63% visible
METAR KOLF 251953Z AUTO 06007KT 10SM CLR 34/08 A2997 RMK AO2 SLP136 T03390078

10-Day Weather Forecast

Almanac

Astronomy

Jul. 25, 2016 Rise Set
Actual Time
Civil Twilight
Nautical Twilight
Astronomical Twilight
Moon
Length of Visible Light
Length of Day
Tomorrow will be .
, % of the Moon is Illuminated

Today's Extremes

State Highs State Lows

Community

WunderPhotos

Upload Photos

1,927,415 photos uploaded!

WunderBlog® & News

Nearby

Air Quality

  Air Quality AQ Index Pollutant
Not available.

Snow Depth

Station Depth Elevation

Earthquake Activity

City Distance Mag. Time & Date
Minimum magnitude displayed is 2.5.

Coastal Water Temperatures

Place Temperature

Stations

Nearby Weather Stations

Station Location Temp. Windchill Dew Point Humidity Wind Precip. Elev Updated Type
                   

Watches & Warnings

There are currently no watches in effect.